createdAt,value
2023-02-09T00:02:42.725Z,15.48
2023-02-09T00:07:45.829Z,14.77
2023-02-09T00:13:06.205Z,12.43
2023-02-09T00:18:10.671Z,13.02
2023-02-09T00:23:13.771Z,16.50
2023-02-09T00:28:16.942Z,15.07
2023-02-09T00:33:21.482Z,13.50
2023-02-09T00:38:24.520Z,12.73
2023-02-09T00:43:27.600Z,16.05
2023-02-09T00:48:32.366Z,12.35
2023-02-09T00:53:35.434Z,13.85
2023-02-09T00:58:38.511Z,14.45
2023-02-09T01:03:43.000Z,14.73
2023-02-09T01:08:46.142Z,15.40
2023-02-09T01:13:49.481Z,17.40
2023-02-09T01:18:54.076Z,13.20
2023-02-09T01:23:58.141Z,17.27
2023-02-09T01:29:01.246Z,19.27
2023-02-09T01:34:05.753Z,13.48
2023-02-09T01:39:09.203Z,12.45
2023-02-09T01:44:30.843Z,14.63
2023-02-09T01:49:35.386Z,16.67
2023-02-09T01:54:40.623Z,14.05
2023-02-09T01:59:44.977Z,10.50
2023-02-09T02:04:49.873Z,14.75
2023-02-09T02:09:53.425Z,10.77
2023-02-09T02:14:56.583Z,13.80
2023-02-09T02:20:23.688Z,12.10
2023-02-09T02:26:00.219Z,10.82
2023-02-09T02:31:16.330Z,12.25
2023-02-09T02:36:26.966Z,13.02
2023-02-09T02:41:53.675Z,12.45
2023-02-09T02:46:59.593Z,14.93
2023-02-09T02:52:05.982Z,13.48
2023-02-09T02:57:11.365Z,12.98
2023-02-09T03:02:16.307Z,16.30
2023-02-09T03:07:20.749Z,10.52
2023-02-09T03:12:26.981Z,14.95
2023-02-09T03:17:34.802Z,11.85
2023-02-09T03:22:40.147Z,15.45
2023-02-09T03:27:46.095Z,15.15
2023-02-09T03:32:49.508Z,13.85
2023-02-09T03:37:53.943Z,12.90
2023-02-09T03:42:57.049Z,14.02
2023-02-09T03:48:00.172Z,13.40
2023-02-09T03:53:06.553Z,14.75
2023-02-09T03:58:09.680Z,15.05
2023-02-09T04:03:12.760Z,15.75
2023-02-09T04:08:17.229Z,17.38
2023-02-09T04:13:20.386Z,15.00
2023-02-09T04:18:23.480Z,15.55
2023-02-09T04:23:27.958Z,15.05
2023-02-09T04:28:31.194Z,19.02
2023-02-09T04:33:34.543Z,14.23
2023-02-09T04:38:39.173Z,13.10
2023-02-09T04:43:42.397Z,13.30
2023-02-09T04:48:45.722Z,12.27
2023-02-09T04:53:50.195Z,12.65
2023-02-09T04:59:19.149Z,12.70
2023-02-09T05:04:22.259Z,16.90
2023-02-09T05:09:26.720Z,14.20
2023-02-09T05:14:29.834Z,12.50
2023-02-09T05:19:32.946Z,16.67
2023-02-09T05:24:37.357Z,14.75
2023-02-09T05:29:40.486Z,14.63
2023-02-09T05:34:43.563Z,13.63
2023-02-09T05:39:48.002Z,15.55
2023-02-09T05:44:51.741Z,12.30
2023-02-09T05:49:54.888Z,12.75
2023-02-09T05:54:59.377Z,12.93
2023-02-09T06:00:02.540Z,29.85
2023-02-09T06:05:14.886Z,13.63
2023-02-09T06:10:19.529Z,19.50
2023-02-09T06:15:22.652Z,15.90
2023-02-09T06:20:25.781Z,17.25
2023-02-09T06:25:30.415Z,15.00
2023-02-09T06:30:33.530Z,14.90
2023-02-09T06:35:36.808Z,14.43
2023-02-09T06:40:41.320Z,15.27
2023-02-09T06:45:44.409Z,14.85
2023-02-09T06:50:48.013Z,15.32
2023-02-09T06:55:52.707Z,18.92
2023-02-09T07:00:55.834Z,18.75
2023-02-09T07:06:03.900Z,15.00
2023-02-09T07:11:09.726Z,16.38
2023-02-09T07:16:13.275Z,16.42
2023-02-09T07:21:18.676Z,18.95
2023-02-09T07:26:23.285Z,14.57
2023-02-09T07:31:27.355Z,20.35
2023-02-09T07:36:30.789Z,20.67
2023-02-09T07:41:35.350Z,15.30
2023-02-09T07:46:38.738Z,17.65
2023-02-09T07:51:42.099Z,16.20
2023-02-09T07:56:47.209Z,20.25
2023-02-09T08:01:51.855Z,20.15
2023-02-09T08:06:56.033Z,23.70
2023-02-09T08:12:03.243Z,18.27
2023-02-09T08:17:21.455Z,17.67
2023-02-09T08:22:26.347Z,19.33
2023-02-09T08:27:31.289Z,18.48
2023-02-09T08:32:34.575Z,16.10
2023-02-09T08:37:37.907Z,18.38
2023-02-09T08:42:42.507Z,21.73
2023-02-09T08:47:45.626Z,17.83
2023-02-09T08:52:49.080Z,16.25
2023-02-09T08:57:53.763Z,18.55
2023-02-09T09:02:57.005Z,24.42
2023-02-09T09:08:00.417Z,16.20
2023-02-09T09:13:05.232Z,19.17
2023-02-09T09:18:08.306Z,16.42
2023-02-09T09:23:11.874Z,17.05
2023-02-09T09:28:16.837Z,17.15
2023-02-09T09:33:20.553Z,16.05
2023-02-09T09:38:23.752Z,23.73
2023-02-09T09:43:30.588Z,18.65
2023-02-09T09:48:39.242Z,21.33
2023-02-09T09:53:44.787Z,18.75
2023-02-09T09:58:50.046Z,19.02
2023-02-09T10:03:53.251Z,19.70
2023-02-09T10:08:58.634Z,18.70
2023-02-09T10:14:03.251Z,20.42
2023-02-09T10:19:17.753Z,19.90
2023-02-09T10:24:22.743Z,19.23
2023-02-09T10:29:27.335Z,20.42
2023-02-09T10:34:32.777Z,19.40
2023-02-09T10:39:36.551Z,22.52
2023-02-09T10:44:41.164Z,20.55
2023-02-09T10:49:44.397Z,21.00
2023-02-09T10:54:49.875Z,17.65
2023-02-09T10:59:55.249Z,20.55
2023-02-09T11:04:58.625Z,18.33
2023-02-09T11:10:03.483Z,17.90
2023-02-09T11:15:15.050Z,17.83
2023-02-09T11:20:24.576Z,21.05
2023-02-09T11:25:29.979Z,21.63
2023-02-09T11:30:43.782Z,18.58
2023-02-09T11:35:51.889Z,19.58
2023-02-09T11:40:56.521Z,18.98
2023-02-09T11:46:04.108Z,20.45
2023-02-09T11:51:08.712Z,19.05
2023-02-09T11:56:13.282Z,20.15
2023-02-09T12:01:31.001Z,23.77
2023-02-09T12:06:37.075Z,26.27
2023-02-09T12:11:46.298Z,20.08
2023-02-09T12:16:54.915Z,22.88
2023-02-09T12:21:58.080Z,20.10
2023-02-09T12:27:01.377Z,22.63
2023-02-09T12:32:39.168Z,22.55
2023-02-09T12:38:07.343Z,24.50
2023-02-09T12:43:28.463Z,29.85
2023-02-09T12:53:48.138Z,23.38
2023-02-09T12:58:55.686Z,24.38
2023-02-09T13:04:01.995Z,25.30
2023-02-09T13:09:10.335Z,22.25
2023-02-09T13:14:15.717Z,24.90
2023-02-09T13:19:27.558Z,26.42
2023-02-09T13:24:40.341Z,25.17
2023-02-09T13:29:49.003Z,20.90
2023-02-09T13:34:56.915Z,30.33
2023-02-09T13:40:02.353Z,26.88
2023-02-09T13:45:17.495Z,28.75
2023-02-09T13:50:21.628Z,27.83
2023-02-09T13:55:27.494Z,31.45
2023-02-09T14:00:37.295Z,27.50
2023-02-09T14:05:42.114Z,25.90
2023-02-09T14:10:51.591Z,28.38
2023-02-09T14:16:09.633Z,29.75
2023-02-09T14:21:17.774Z,28.27
2023-02-09T14:26:26.988Z,28.73
2023-02-09T14:31:30.298Z,30.63
2023-02-09T14:36:36.313Z,28.02
2023-02-09T14:41:41.230Z,30.02
2023-02-09T14:46:51.782Z,26.50
2023-02-09T14:52:01.532Z,29.88
2023-02-09T14:57:06.401Z,30.25
2023-02-09T15:02:16.779Z,32.17
2023-02-09T15:07:20.984Z,23.40
2023-02-09T15:12:27.027Z,33.65
2023-02-09T15:17:31.723Z,31.63
2023-02-09T15:22:34.987Z,29.25
2023-02-09T15:27:42.419Z,29.30
2023-02-09T15:32:46.077Z,31.20
2023-02-09T15:37:50.564Z,32.63
2023-02-09T15:43:12.840Z,28.77
2023-02-09T15:48:16.274Z,33.08
2023-02-09T15:53:21.471Z,32.40
2023-02-09T15:58:28.512Z,34.05
2023-02-09T16:03:32.580Z,34.83
2023-02-09T16:08:37.518Z,31.45
2023-02-09T16:13:42.135Z,38.05
2023-02-09T16:18:45.647Z,34.35
2023-02-09T16:23:49.157Z,32.05
2023-02-09T16:28:54.074Z,35.03
2023-02-09T16:33:57.714Z,41.67
2023-02-09T16:39:00.913Z,41.00
2023-02-09T16:44:13.689Z,34.08
2023-02-09T16:49:32.666Z,36.17
2023-02-09T16:54:40.167Z,37.38
2023-02-09T16:59:45.077Z,35.08
2023-02-09T17:04:48.252Z,29.42
2023-02-09T17:09:51.441Z,36.83
2023-02-09T17:14:56.155Z,36.38
2023-02-09T17:20:00.752Z,36.83
2023-02-09T17:25:03.987Z,38.75
2023-02-09T17:30:09.744Z,38.42
2023-02-09T17:35:17.263Z,37.30
2023-02-09T17:40:21.606Z,35.17
2023-02-09T17:45:28.367Z,34.75
2023-02-09T17:50:31.668Z,38.47
2023-02-09T17:55:35.074Z,40.88
2023-02-09T18:00:40.226Z,38.28
2023-02-09T18:05:44.226Z,41.13
2023-02-09T18:10:47.889Z,44.45
2023-02-09T18:15:52.987Z,39.58
2023-02-09T18:20:56.361Z,41.13
2023-02-09T18:25:59.640Z,40.38
2023-02-09T18:31:06.634Z,47.67
2023-02-09T18:36:10.281Z,42.72
2023-02-09T18:41:13.665Z,45.45
2023-02-09T18:46:19.878Z,47.28
2023-02-09T18:51:23.066Z,50.75
2023-02-09T18:56:28.477Z,45.70
2023-02-09T19:01:33.362Z,44.83
2023-02-09T19:06:36.709Z,37.03
2023-02-09T19:11:39.927Z,66.88
2023-02-09T19:16:45.826Z,47.17
2023-02-09T19:21:52.070Z,46.47
2023-02-09T19:26:56.153Z,44.63
2023-02-09T19:32:01.306Z,45.67
2023-02-09T19:37:05.656Z,41.90
2023-02-09T19:42:09.294Z,51.33
2023-02-09T19:47:13.906Z,42.55
2023-02-09T19:52:17.042Z,48.80
2023-02-09T19:57:20.481Z,44.40
2023-02-09T20:02:25.297Z,45.92
2023-02-09T20:07:28.495Z,40.30
2023-02-09T20:12:32.834Z,44.78
2023-02-09T20:17:37.425Z,46.75
2023-02-09T20:22:40.772Z,41.40
2023-02-09T20:27:44.229Z,45.83
2023-02-09T20:32:49.077Z,45.83
2023-02-09T20:37:53.055Z,46.05
2023-02-09T20:43:13.777Z,45.92
2023-02-09T20:48:19.673Z,43.20
2023-02-09T20:53:23.436Z,49.53
2023-02-09T20:58:26.716Z,44.90
2023-02-09T21:03:31.381Z,43.28
2023-02-09T21:08:36.144Z,44.08
2023-02-09T21:13:41.234Z,41.78
2023-02-09T21:18:45.882Z,44.53
2023-02-09T21:23:49.391Z,47.45
2023-02-09T21:28:57.028Z,49.30
2023-02-09T21:34:01.719Z,66.97
2023-02-09T21:39:05.067Z,50.28
2023-02-09T21:44:09.924Z,57.67
2023-02-09T21:49:14.744Z,47.45
2023-02-09T21:54:18.936Z,46.92
2023-02-09T21:59:22.422Z,52.10
2023-02-09T22:04:27.389Z,42.17
2023-02-09T22:09:30.676Z,44.97
2023-02-09T22:14:33.980Z,41.13
2023-02-09T22:19:38.993Z,41.00
2023-02-09T22:24:42.217Z,43.70
2023-02-09T22:29:46.416Z,43.28
2023-02-09T22:34:50.882Z,44.53
2023-02-09T22:39:53.958Z,47.53
2023-02-09T22:44:57.089Z,51.25
2023-02-09T22:50:01.554Z,47.15
2023-02-09T22:55:04.820Z,45.10
2023-02-09T23:00:10.783Z,42.10
2023-02-09T23:05:15.433Z,46.58
2023-02-09T23:10:18.588Z,45.72
2023-02-09T23:15:21.695Z,46.83
2023-02-09T23:20:26.189Z,41.45
2023-02-09T23:25:29.327Z,52.25
2023-02-09T23:30:32.440Z,48.33
2023-02-09T23:35:39.158Z,50.00
2023-02-09T23:40:42.277Z,46.80
2023-02-09T23:45:45.386Z,51.20
2023-02-09T23:50:49.846Z,44.63
2023-02-09T23:55:53.316Z,43.20
